Time;durP1;ratioP1;P1;durP2;ratioP2;P2;SDS_P1;SDS_P2;PMS_P1;PMS_P2;Temp;Humidity;BMP_temperature;BMP_pressure;BME280_temperature;BME280_humidity;BME280_pressure;Samples;Min_cycle;Max_cycle;Signal;HPM_P1;HPM_P2
2023/06/06 00:02:06;;;;;;;1.40;0.47;;;17.00;99.90;;;;;;5075559;28;20214;-91
2023/06/06 00:04:39;;;;;;;2.80;0.57;;;17.00;99.90;;;;;;5075157;28;20239;-90
2023/06/06 00:07:12;;;;;;;2.42;0.80;;;17.00;99.90;;;;;;5075385;28;20285;-90
2023/06/06 00:09:45;;;;;;;1.23;0.52;;;17.00;99.90;;;;;;5080689;28;20282;-88
2023/06/06 00:12:17;;;;;;;0.38;0.38;;;17.10;99.90;;;;;;5077290;28;20275;-90
2023/06/06 00:14:50;;;;;;;1.23;0.50;;;17.10;99.90;;;;;;5076885;28;20231;-90
2023/06/06 00:17:26;;;;;;;1.27;0.40;;;17.10;99.90;;;;;;5075325;28;20196;-91
2023/06/06 00:19:58;;;;;;;1.73;0.60;;;17.10;99.90;;;;;;5075433;28;20196;-91
2023/06/06 00:22:32;;;;;;;1.73;0.70;;;17.20;99.90;;;;;;5074417;28;20589;-90
2023/06/06 00:25:05;;;;;;;2.00;0.52;;;17.10;99.90;;;;;;5074854;28;20203;-91
2023/06/06 00:27:40;;;;;;;1.33;0.50;;;17.20;99.90;;;;;;5074927;28;20299;-91
2023/06/06 00:30:15;;;;;;;2.22;0.55;;;17.20;99.90;;;;;;5073294;28;20200;-89
2023/06/06 00:32:49;;;;;;;2.78;0.63;;;17.20;99.90;;;;;;5077727;28;20237;-89
2023/06/06 00:35:21;;;;;;;3.45;0.60;;;17.30;99.90;;;;;;5069028;28;20585;-90
2023/06/06 00:37:53;;;;;;;1.63;0.43;;;17.30;99.90;;;;;;5054689;28;20197;-92
2023/06/06 00:40:26;;;;;;;3.47;0.80;;;17.30;99.90;;;;;;5062997;28;20196;-89
2023/06/06 00:42:57;;;;;;;0.75;0.55;;;17.40;99.90;;;;;;5068247;28;20195;-91
2023/06/06 00:45:29;;;;;;;1.65;0.60;;;17.40;99.90;;;;;;5072900;28;20441;-92
2023/06/06 00:48:07;;;;;;;2.15;0.68;;;17.50;99.90;;;;;;5073361;28;20195;-91
2023/06/06 00:50:40;;;;;;;1.48;0.60;;;17.50;99.90;;;;;;5074472;28;20229;-89
2023/06/06 00:53:12;;;;;;;1.35;0.40;;;17.50;99.90;;;;;;5073789;28;20196;-90
2023/06/06 00:55:43;;;;;;;1.55;0.63;;;17.50;99.90;;;;;;5074326;28;20207;-91
2023/06/06 00:58:17;;;;;;;2.40;0.70;;;17.60;99.90;;;;;;5073787;28;20196;-90
2023/06/06 01:00:49;;;;;;;0.82;0.43;;;17.60;99.90;;;;;;5073575;28;20659;-89
2023/06/06 01:03:24;;;;;;;2.65;0.77;;;17.60;99.90;;;;;;5074488;28;20671;-90
2023/06/06 01:05:56;;;;;;;0.98;0.50;;;17.70;99.90;;;;;;5075112;28;20291;-91
2023/06/06 01:08:27;;;;;;;1.17;0.60;;;17.70;99.90;;;;;;5076173;28;20226;-91
2023/06/06 01:11:22;;;;;;;2.67;0.50;;;17.70;99.90;;;;;;5064069;28;20718;-90
2023/06/06 01:14:07;;;;;;;1.35;0.50;;;17.70;99.90;;;;;;5075308;28;20216;-91
2023/06/06 01:16:40;;;;;;;3.20;0.73;;;17.70;99.90;;;;;;5075090;28;20204;-91
2023/06/06 01:19:27;;;;;;;2.95;0.70;;;17.70;99.90;;;;;;5074387;28;20201;-91
2023/06/06 01:22:03;;;;;;;1.83;0.70;;;17.70;99.90;;;;;;5074614;28;20567;-92
2023/06/06 01:24:36;;;;;;;2.55;0.90;;;17.70;99.90;;;;;;5076643;28;20621;-92
2023/06/06 01:27:08;;;;;;;2.58;0.93;;;17.80;99.90;;;;;;5076460;28;20207;-90
2023/06/06 01:29:39;;;;;;;1.80;1.00;;;17.90;99.90;;;;;;5075430;28;20208;-91
2023/06/06 01:32:23;;;;;;;7.05;1.23;;;18.00;99.90;;;;;;5057643;28;20228;-90
2023/06/06 01:35:00;;;;;;;1.95;0.70;;;18.00;99.90;;;;;;5053973;28;20713;-91
2023/06/06 01:37:45;;;;;;;2.53;0.70;;;17.90;99.90;;;;;;5069185;28;20655;-89
2023/06/06 01:40:18;;;;;;;2.33;0.73;;;18.00;99.90;;;;;;5063122;28;20204;-91
2023/06/06 01:42:52;;;;;;;2.63;0.90;;;18.20;99.90;;;;;;5056330;28;20200;-91
2023/06/06 01:45:29;;;;;;;2.40;0.70;;;18.30;99.90;;;;;;5064731;28;20203;-90
2023/06/06 01:48:02;;;;;;;6.25;0.73;;;18.30;99.90;;;;;;5076865;28;20220;-90
2023/06/06 01:50:35;;;;;;;0.75;0.47;;;18.30;99.90;;;;;;5073079;28;20257;-90
2023/06/06 01:53:11;;;;;;;1.58;0.55;;;18.40;99.90;;;;;;5075967;28;20196;-89
2023/06/06 01:55:43;;;;;;;1.92;0.60;;;18.40;99.90;;;;;;5065931;28;20223;-90
2023/06/06 01:58:17;;;;;;;2.00;0.60;;;18.50;99.90;;;;;;5072677;28;20229;-91
2023/06/06 02:00:48;;;;;;;1.27;0.60;;;18.50;99.90;;;;;;5072358;28;20222;-90
2023/06/06 02:03:21;;;;;;;0.80;0.30;;;18.50;99.90;;;;;;5077437;28;20602;-87
2023/06/06 02:05:53;;;;;;;3.58;1.70;;;18.50;99.90;;;;;;5058118;28;20594;-88
2023/06/06 02:08:28;;;;;;;1.35;0.50;;;18.60;99.90;;;;;;5083682;28;20288;-90
2023/06/06 02:11:00;;;;;;;2.53;0.52;;;18.70;99.90;;;;;;5087957;28;20195;-89
2023/06/06 02:13:34;;;;;;;3.60;0.65;;;18.80;99.90;;;;;;5061957;28;20197;-88
2023/06/06 02:16:13;;;;;;;1.80;0.60;;;18.70;99.90;;;;;;5058691;28;20215;-90
2023/06/06 02:18:45;;;;;;;2.03;0.60;;;18.80;99.90;;;;;;5055024;28;20652;-90
2023/06/06 02:21:18;;;;;;;2.20;0.50;;;18.80;99.90;;;;;;5062285;28;20199;-90
2023/06/06 02:23:53;;;;;;;1.33;0.40;;;18.80;99.90;;;;;;5063147;28;20199;-91
2023/06/06 02:26:28;;;;;;;1.98;0.60;;;18.70;99.90;;;;;;5077732;28;20204;-89
2023/06/06 02:31:55;;;;;;;2.13;0.45;;;18.60;99.90;;;;;;5079111;28;20232;-90
2023/06/06 02:34:28;;;;;;;0.93;0.52;;;18.60;99.90;;;;;;5074587;28;20227;-91
2023/06/06 02:37:02;;;;;;;3.35;0.82;;;18.60;99.90;;;;;;5074374;28;20250;-93
2023/06/06 02:39:38;;;;;;;2.13;0.60;;;18.60;99.90;;;;;;5073754;28;20218;-90
2023/06/06 02:42:11;;;;;;;1.75;0.60;;;18.50;99.90;;;;;;5073739;28;20206;-89
2023/06/06 02:44:43;;;;;;;3.17;0.70;;;18.50;99.90;;;;;;5074867;28;20200;-90
2023/06/06 02:47:15;;;;;;;1.98;0.73;;;18.50;99.90;;;;;;5073606;28;20208;-91
2023/06/06 02:49:48;;;;;;;1.23;0.50;;;18.50;99.90;;;;;;5073934;28;20202;-91
2023/06/06 02:52:24;;;;;;;2.55;0.50;;;18.60;99.90;;;;;;5072483;28;20192;-91
2023/06/06 02:55:00;;;;;;;2.35;0.47;;;18.70;99.90;;;;;;5073510;28;20280;-91
2023/06/06 02:57:32;;;;;;;2.33;0.80;;;18.80;99.90;;;;;;5072089;28;20204;-91
2023/06/06 03:00:08;;;;;;;3.97;0.85;;;18.90;99.90;;;;;;5072485;28;20195;-90
2023/06/06 03:02:40;;;;;;;2.25;0.57;;;18.90;99.90;;;;;;5073541;28;20223;-91
2023/06/06 03:05:14;;;;;;;1.83;0.50;;;18.80;99.90;;;;;;5073291;28;20709;-91
2023/06/06 03:07:47;;;;;;;2.05;0.55;;;18.80;99.90;;;;;;5073472;28;20249;-91
2023/06/06 03:10:24;;;;;;;4.80;0.75;;;18.80;99.90;;;;;;5072928;28;20196;-91
2023/06/06 03:12:56;;;;;;;2.72;0.93;;;18.90;99.90;;;;;;5074281;28;20203;-91
2023/06/06 03:15:29;;;;;;;2.60;0.60;;;18.90;99.90;;;;;;5077652;28;20250;-91
2023/06/06 03:18:01;;;;;;;3.10;0.90;;;19.00;99.90;;;;;;5077654;28;20191;-90
2023/06/06 03:20:32;;;;;;;1.48;0.60;;;19.10;99.90;;;;;;5077987;28;20204;-91
2023/06/06 03:23:03;;;;;;;1.80;0.70;;;19.20;99.90;;;;;;5077994;28;20210;-91
2023/06/06 03:25:37;;;;;;;2.03;0.70;;;19.20;99.90;;;;;;5075958;28;20196;-91
2023/06/06 03:28:09;;;;;;;3.17;0.88;;;19.20;99.90;;;;;;5068520;28;20196;-92
2023/06/06 03:30:41;;;;;;;2.40;0.65;;;19.30;99.90;;;;;;5069386;28;20211;-91
2023/06/06 03:33:15;;;;;;;4.60;1.00;;;19.20;99.90;;;;;;5077559;28;20243;-90
2023/06/06 03:35:47;;;;;;;3.22;0.70;;;19.30;99.90;;;;;;5077225;28;20235;-90
2023/06/06 03:38:20;;;;;;;0.88;0.70;;;19.20;99.90;;;;;;5065724;28;20196;-90
2023/06/06 03:40:55;;;;;;;2.47;0.98;;;19.30;99.90;;;;;;5055749;28;20199;-91
2023/06/06 03:43:30;;;;;;;3.30;1.00;;;19.40;99.90;;;;;;5062357;28;20218;-89
2023/06/06 03:46:02;;;;;;;4.30;1.13;;;19.50;99.90;;;;;;5057879;28;20242;-91
2023/06/06 03:48:34;;;;;;;2.65;0.70;;;19.50;99.90;;;;;;5075385;28;20223;-91
2023/06/06 03:51:06;;;;;;;2.28;0.65;;;19.30;99.90;;;;;;5075544;28;20211;-90
2023/06/06 03:53:38;;;;;;;1.52;0.68;;;19.30;99.90;;;;;;5076910;28;20195;-90
2023/06/06 03:56:12;;;;;;;2.65;0.68;;;19.40;99.90;;;;;;5075055;28;20792;-91
2023/06/06 03:58:44;;;;;;;2.47;1.10;;;19.50;99.90;;;;;;5076017;28;20303;-90
2023/06/06 04:01:16;;;;;;;3.53;0.77;;;19.50;99.90;;;;;;5069280;28;20196;-90
2023/06/06 04:03:48;;;;;;;2.20;0.70;;;19.60;99.90;;;;;;5054880;28;20224;-90
2023/06/06 04:06:20;;;;;;;1.65;0.80;;;19.60;99.90;;;;;;5064237;28;20575;-91
2023/06/06 04:08:52;;;;;;;2.40;0.68;;;19.60;99.90;;;;;;5075403;28;20222;-90
2023/06/06 04:11:28;;;;;;;2.38;0.57;;;19.60;99.90;;;;;;5076222;28;20211;-90
2023/06/06 04:14:01;;;;;;;3.35;0.93;;;19.50;99.90;;;;;;5076941;28;20196;-91
2023/06/06 04:16:32;;;;;;;1.42;0.60;;;19.50;99.90;;;;;;5076837;28;20335;-91
2023/06/06 04:19:04;;;;;;;2.67;0.70;;;19.50;99.90;;;;;;5077380;28;20211;-92
2023/06/06 04:21:36;;;;;;;2.85;0.63;;;19.50;99.90;;;;;;5077807;28;20199;-92
2023/06/06 04:24:10;;;;;;;2.40;0.63;;;19.60;99.90;;;;;;5067514;28;20191;-92
2023/06/06 04:26:46;;;;;;;1.27;0.50;;;19.60;99.90;;;;;;5076394;28;20184;-91
2023/06/06 04:29:21;;;;;;;3.95;0.60;;;19.60;99.90;;;;;;5079798;28;20200;-91
2023/06/06 04:31:54;;;;;;;1.67;0.65;;;19.60;99.90;;;;;;5059241;28;20228;-92
2023/06/06 04:34:30;;;;;;;1.88;0.60;;;19.50;99.90;;;;;;5056506;28;20262;-92
2023/06/06 04:37:04;;;;;;;1.85;0.50;;;19.60;99.90;;;;;;5055977;28;20238;-91
2023/06/06 04:39:37;;;;;;;2.35;0.50;;;19.50;99.90;;;;;;5057479;28;20218;-90
2023/06/06 04:42:15;;;;;;;1.67;0.63;;;19.50;99.90;;;;;;5061700;28;20192;-91
2023/06/06 04:44:49;;;;;;;0.73;0.40;;;19.50;99.90;;;;;;5059323;28;20667;-91
2023/06/06 04:47:23;;;;;;;2.70;0.65;;;19.30;99.90;;;;;;5058863;28;20853;-90
2023/06/06 04:49:54;;;;;;;0.90;0.55;;;19.40;99.90;;;;;;5076645;28;20264;-91
2023/06/06 04:52:28;;;;;;;1.83;0.55;;;19.50;99.90;;;;;;5066945;28;20881;-92
2023/06/06 04:55:03;;;;;;;3.17;0.85;;;19.60;99.90;;;;;;5070028;28;20216;-90
2023/06/06 04:57:37;;;;;;;2.10;0.60;;;19.70;99.90;;;;;;5083046;28;20724;-90
2023/06/06 05:00:09;;;;;;;1.95;0.70;;;19.70;99.90;;;;;;5063467;28;20200;-92
2023/06/06 05:02:41;;;;;;;2.60;0.73;;;19.70;99.90;;;;;;5055293;28;20201;-91
2023/06/06 05:05:16;;;;;;;3.95;0.80;;;19.70;99.90;;;;;;5071759;28;20203;-91
2023/06/06 05:07:48;;;;;;;3.30;0.75;;;19.60;99.90;;;;;;5055342;28;20278;-90
2023/06/06 05:10:23;;;;;;;1.75;0.57;;;19.60;99.90;;;;;;5056991;28;20197;-90
2023/06/06 05:12:57;;;;;;;2.15;0.80;;;19.60;99.90;;;;;;5054062;28;20203;-91
2023/06/06 05:15:29;;;;;;;2.40;0.82;;;19.60;99.90;;;;;;5064617;28;20231;-91
2023/06/06 05:18:01;;;;;;;3.17;0.82;;;19.60;99.90;;;;;;5055402;28;20193;-91
2023/06/06 05:20:33;;;;;;;2.25;0.80;;;19.60;99.90;;;;;;5063031;28;20563;-90
2023/06/06 05:23:05;;;;;;;2.20;0.77;;;19.50;99.90;;;;;;5072959;28;20200;-91
2023/06/06 05:25:40;;;;;;;3.25;0.80;;;19.50;99.90;;;;;;5057722;28;20201;-90
2023/06/06 05:28:15;;;;;;;2.00;0.60;;;19.50;99.90;;;;;;5063714;28;20194;-91
2023/06/06 05:30:49;;;;;;;2.72;0.70;;;19.40;99.90;;;;;;5074912;28;20196;-91
2023/06/06 05:33:22;;;;;;;3.75;0.60;;;19.30;99.90;;;;;;5074738;28;20193;-91
2023/06/06 05:35:55;;;;;;;3.30;0.60;;;19.30;99.90;;;;;;5056784;28;20209;-90
2023/06/06 05:38:27;;;;;;;3.53;0.60;;;19.30;99.90;;;;;;5054337;28;20208;-91
2023/06/06 05:40:58;;;;;;;1.80;0.60;;;19.20;99.90;;;;;;5059690;28;20201;-91
2023/06/06 05:43:33;;;;;;;2.03;0.68;;;19.10;99.90;;;;;;5055032;28;20201;-91
2023/06/06 05:46:05;;;;;;;1.02;0.60;;;19.00;99.90;;;;;;5057590;28;20203;-90
2023/06/06 05:48:36;;;;;;;1.92;0.60;;;18.90;99.90;;;;;;5074255;28;20202;-91
2023/06/06 05:51:08;;;;;;;1.98;0.60;;;18.90;99.90;;;;;;5075002;28;20204;-90
2023/06/06 05:53:44;;;;;;;0.95;0.60;;;18.90;99.90;;;;;;5076933;28;20291;-90
2023/06/06 05:56:17;;;;;;;1.23;0.55;;;18.80;99.90;;;;;;5064186;28;20707;-91
2023/06/06 05:58:55;;;;;;;1.77;0.60;;;18.80;99.90;;;;;;5073660;28;20192;-89
2023/06/06 06:01:27;;;;;;;1.45;0.50;;;18.80;99.90;;;;;;5074863;28;20192;-90
2023/06/06 06:04:02;;;;;;;2.08;0.75;;;18.70;99.90;;;;;;5077600;28;20199;-91
2023/06/06 06:06:34;;;;;;;1.48;0.45;;;18.70;99.90;;;;;;5076371;28;20210;-91
2023/06/06 06:09:07;;;;;;;1.10;0.47;;;18.60;99.90;;;;;;5073386;28;20216;-91
2023/06/06 06:11:38;;;;;;;4.45;1.00;;;18.60;99.90;;;;;;5073506;28;20207;-91
2023/06/06 06:14:14;;;;;;;3.28;0.57;;;18.60;99.90;;;;;;5062688;28;20196;-91
2023/06/06 06:16:46;;;;;;;1.75;0.60;;;18.50;99.90;;;;;;5060765;28;20228;-89
2023/06/06 06:19:17;;;;;;;1.98;0.52;;;18.50;99.90;;;;;;5053428;28;20598;-91
2023/06/06 06:21:49;;;;;;;2.30;0.50;;;18.50;99.90;;;;;;5062253;28;20206;-90
2023/06/06 06:24:20;;;;;;;2.53;0.70;;;18.50;99.90;;;;;;5074584;28;20655;-90
2023/06/06 06:26:52;;;;;;;1.48;0.70;;;18.50;99.90;;;;;;5073329;28;20196;-91
2023/06/06 06:29:29;;;;;;;4.32;0.63;;;18.50;99.90;;;;;;5073719;28;20238;-89
2023/06/06 06:32:03;;;;;;;1.63;0.60;;;18.50;99.90;;;;;;5072885;28;20227;-91
2023/06/06 06:34:36;;;;;;;2.38;0.60;;;18.40;99.90;;;;;;5074637;28;20204;-90
2023/06/06 06:37:08;;;;;;;1.85;0.50;;;18.40;99.90;;;;;;5084383;28;20586;-91
2023/06/06 06:39:41;;;;;;;2.40;0.60;;;18.40;99.90;;;;;;5074600;28;20204;-91
2023/06/06 06:42:13;;;;;;;1.65;0.47;;;18.40;99.90;;;;;;5054538;28;20208;-91
2023/06/06 06:44:48;;;;;;;1.42;0.60;;;18.40;99.90;;;;;;5054163;28;20219;-91
2023/06/06 06:47:19;;;;;;;1.20;0.50;;;18.30;99.90;;;;;;5053608;28;20204;-91
2023/06/06 06:49:52;;;;;;;1.27;0.70;;;18.30;99.90;;;;;;5062056;28;20207;-91
2023/06/06 06:52:27;;;;;;;1.25;0.60;;;18.30;99.90;;;;;;5078485;28;20200;-90
2023/06/06 06:55:00;;;;;;;1.35;0.70;;;18.30;99.90;;;;;;5078161;28;20580;-91
2023/06/06 06:57:31;;;;;;;1.67;0.70;;;18.30;99.90;;;;;;5076576;28;20199;-91
2023/06/06 07:00:15;;;;;;;1.50;0.68;;;18.30;99.90;;;;;;5075961;28;20188;-91
2023/06/06 07:02:49;;;;;;;1.98;0.60;;;18.20;99.90;;;;;;5076021;28;20599;-91
2023/06/06 07:05:22;;;;;;;2.10;0.68;;;18.20;99.90;;;;;;5059424;28;20196;-90
2023/06/06 07:07:56;;;;;;;2.90;0.85;;;18.20;99.90;;;;;;5056024;28;20212;-91
2023/06/06 07:10:28;;;;;;;3.35;0.82;;;18.20;99.90;;;;;;5056169;28;20210;-91
2023/06/06 07:13:00;;;;;;;2.17;0.70;;;18.20;99.90;;;;;;5064709;28;20648;-89
2023/06/06 07:15:38;;;;;;;2.58;0.80;;;18.20;99.90;;;;;;5064001;28;20221;-89
2023/06/06 07:18:11;;;;;;;2.08;0.50;;;18.20;99.90;;;;;;5062237;28;20200;-88
2023/06/06 07:20:43;;;;;;;3.13;0.80;;;18.20;99.90;;;;;;5069899;28;20196;-91
2023/06/06 07:23:15;;;;;;;2.25;0.80;;;18.20;99.90;;;;;;5075937;28;20195;-91
2023/06/06 07:25:48;;;;;;;4.50;0.82;;;18.10;99.90;;;;;;5075131;28;20215;-91
2023/06/06 07:28:20;;;;;;;2.85;1.10;;;18.10;99.90;;;;;;5075367;28;20195;-91
2023/06/06 07:30:53;;;;;;;3.15;1.15;;;18.10;99.90;;;;;;5071706;28;20203;-92
2023/06/06 07:33:24;;;;;;;4.30;1.27;;;18.00;99.90;;;;;;5085128;28;20199;-91
2023/06/06 07:35:56;;;;;;;2.28;1.00;;;18.00;99.90;;;;;;5089886;28;20605;-90
2023/06/06 07:38:27;;;;;;;2.58;1.10;;;18.00;99.90;;;;;;5077104;28;20714;-91
2023/06/06 07:41:00;;;;;;;3.67;1.35;;;18.00;99.90;;;;;;5074712;28;20709;-91
2023/06/06 07:43:32;;;;;;;2.83;1.02;;;18.00;99.90;;;;;;5075176;28;20192;-91
2023/06/06 07:46:05;;;;;;;3.45;1.10;;;17.90;99.90;;;;;;5075530;28;20210;-91
2023/06/06 07:48:37;;;;;;;2.53;1.20;;;17.90;99.90;;;;;;5076660;28;20206;-92
2023/06/06 07:51:09;;;;;;;2.40;1.25;;;17.90;99.90;;;;;;5076704;28;20196;-90
2023/06/06 07:53:43;;;;;;;2.10;0.93;;;17.90;99.90;;;;;;5074903;28;20214;-90
2023/06/06 07:56:16;;;;;;;3.00;1.40;;;17.90;99.90;;;;;;5075449;28;20227;-91
2023/06/06 07:58:51;;;;;;;3.22;1.30;;;17.90;99.90;;;;;;5074817;28;20195;-90
2023/06/06 08:01:25;;;;;;;3.70;1.30;;;17.90;99.90;;;;;;5074379;28;20245;-90
2023/06/06 08:03:59;;;;;;;2.90;1.08;;;17.90;99.90;;;;;;5074492;28;20211;-91
2023/06/06 08:06:32;;;;;;;6.00;1.27;;;17.80;99.90;;;;;;5074472;28;20206;-89
2023/06/06 08:09:08;;;;;;;2.90;1.00;;;17.80;99.90;;;;;;5073467;28;20220;-90
2023/06/06 08:11:40;;;;;;;2.15;0.90;;;17.80;99.90;;;;;;5074620;28;20211;-90
2023/06/06 08:14:14;;;;;;;4.05;1.30;;;17.80;99.90;;;;;;5070942;28;20193;-90
2023/06/06 08:16:49;;;;;;;5.45;2.88;;;17.80;99.90;;;;;;5063764;28;20218;-90
2023/06/06 08:19:22;;;;;;;6.55;3.03;;;17.80;99.90;;;;;;5080248;28;20192;-90
2023/06/06 08:21:54;;;;;;;8.80;5.82;;;17.70;99.90;;;;;;5072569;28;20196;-89
2023/06/06 08:24:28;;;;;;;7.05;3.35;;;17.70;99.90;;;;;;5073971;28;20293;-89
2023/06/06 08:27:02;;;;;;;3.47;2.00;;;17.70;99.90;;;;;;5074220;28;20205;-89
2023/06/06 08:29:34;;;;;;;3.45;1.52;;;17.70;99.90;;;;;;5062770;28;20203;-88
2023/06/06 08:32:12;;;;;;;4.30;1.92;;;17.70;99.90;;;;;;5053887;28;20239;-90
2023/06/06 08:34:44;;;;;;;2.75;1.17;;;17.70;99.90;;;;;;5057970;28;20191;-89
2023/06/06 08:37:19;;;;;;;4.65;1.88;;;17.70;99.90;;;;;;5073655;28;20266;-89
2023/06/06 08:39:51;;;;;;;2.95;1.48;;;17.70;99.90;;;;;;5054282;28;20597;-90
2023/06/06 08:42:23;;;;;;;1.88;1.27;;;17.70;99.90;;;;;;5054641;28;20200;-90
2023/06/06 08:44:55;;;;;;;5.35;1.50;;;17.70;99.90;;;;;;5055161;28;20205;-89
2023/06/06 08:47:32;;;;;;;4.68;1.60;;;17.70;99.90;;;;;;5053598;28;20201;-89
2023/06/06 08:50:07;;;;;;;3.55;1.90;;;17.80;99.90;;;;;;5053472;28;20200;-89
2023/06/06 08:52:40;;;;;;;4.93;2.95;;;17.80;99.90;;;;;;5054297;28;20200;-90
2023/06/06 08:55:15;;;;;;;3.78;2.05;;;17.80;99.90;;;;;;5061585;28;20211;-90
2023/06/06 08:57:48;;;;;;;3.45;1.88;;;17.80;99.90;;;;;;5054839;28;20219;-90
2023/06/06 09:00:23;;;;;;;3.55;1.60;;;17.80;99.90;;;;;;5065584;28;20218;-89
2023/06/06 09:02:59;;;;;;;3.45;1.40;;;17.80;99.90;;;;;;5072725;28;20206;-90
2023/06/06 09:05:30;;;;;;;3.15;1.42;;;17.80;99.90;;;;;;5073321;28;20192;-90
2023/06/06 09:08:03;;;;;;;4.57;1.50;;;17.80;99.90;;;;;;5073131;28;20215;-90
2023/06/06 09:10:34;;;;;;;4.32;2.00;;;17.80;99.90;;;;;;5073293;28;20206;-90
2023/06/06 09:13:08;;;;;;;4.35;2.08;;;17.80;99.90;;;;;;5066882;28;20623;-90
2023/06/06 09:15:40;;;;;;;4.15;1.85;;;17.90;99.90;;;;;;5053507;28;20207;-90
2023/06/06 09:18:16;;;;;;;2.35;1.60;;;17.90;99.90;;;;;;5064094;28;20196;-90
2023/06/06 09:20:54;;;;;;;3.63;1.70;;;17.90;99.90;;;;;;5073300;28;20200;-90
2023/06/06 09:23:26;;;;;;;6.80;1.80;;;17.90;99.90;;;;;;5073340;28;20203;-89
2023/06/06 09:25:57;;;;;;;3.95;1.63;;;17.90;99.90;;;;;;5072344;28;20208;-90
2023/06/06 09:28:41;;;;;;;4.50;1.77;;;17.90;99.90;;;;;;5073152;28;20659;-90
2023/06/06 09:31:30;;;;;;;6.10;2.00;;;17.80;99.90;;;;;;5072905;28;20228;-90
2023/06/06 09:34:05;;;;;;;3.13;2.08;;;17.80;99.90;;;;;;5072514;28;20659;-89
2023/06/06 09:36:38;;;;;;;5.72;3.63;;;17.80;99.90;;;;;;5072639;28;20227;-90
2023/06/06 09:39:15;;;;;;;5.45;3.80;;;17.80;99.90;;;;;;5073201;28;20199;-90
2023/06/06 09:41:48;;;;;;;7.53;5.72;;;17.80;99.90;;;;;;5073349;28;20207;-90
2023/06/06 09:44:23;;;;;;;6.68;5.63;;;17.80;99.90;;;;;;5054663;28;20212;-90
2023/06/06 09:47:03;;;;;;;7.65;4.53;;;17.70;99.90;;;;;;5065453;28;20210;-90
2023/06/06 09:49:40;;;;;;;9.38;6.57;;;17.70;99.90;;;;;;5072854;28;20199;-89
2023/06/06 09:52:17;;;;;;;6.53;5.22;;;17.70;99.90;;;;;;5072882;28;20205;-89
2023/06/06 09:54:49;;;;;;;7.03;4.63;;;17.70;99.90;;;;;;5072612;28;20199;-90
2023/06/06 09:57:21;;;;;;;5.55;3.22;;;17.70;99.90;;;;;;5072823;28;20232;-89
2023/06/06 09:59:55;;;;;;;7.70;4.05;;;17.70;99.90;;;;;;5072777;28;20192;-90
2023/06/06 10:02:31;;;;;;;4.90;2.47;;;17.70;99.90;;;;;;5072856;28;20206;-90
2023/06/06 10:05:06;;;;;;;3.80;2.42;;;17.70;99.90;;;;;;5067795;28;20196;-88
2023/06/06 10:07:39;;;;;;;5.25;3.15;;;17.70;99.90;;;;;;5073219;28;20283;-90
2023/06/06 10:10:12;;;;;;;5.93;3.58;;;17.70;99.90;;;;;;5056329;28;20208;-90
2023/06/06 10:12:45;;;;;;;4.38;3.30;;;17.70;99.90;;;;;;5056099;28;20188;-89
2023/06/06 10:15:17;;;;;;;3.42;2.35;;;17.70;99.90;;;;;;5073098;28;20196;-91
2023/06/06 10:17:51;;;;;;;5.15;2.33;;;17.70;99.90;;;;;;5072368;28;20333;-90
2023/06/06 10:20:28;;;;;;;3.85;2.33;;;17.70;99.90;;;;;;5075008;28;20207;-89
2023/06/06 10:23:01;;;;;;;3.08;2.20;;;17.60;99.90;;;;;;5075131;28;20202;-90
2023/06/06 10:25:34;;;;;;;4.70;2.60;;;17.60;99.90;;;;;;5077029;28;20200;-90
2023/06/06 10:28:15;;;;;;;4.53;2.40;;;17.60;99.90;;;;;;5077247;28;20616;-90
2023/06/06 10:30:59;;;;;;;5.85;2.50;;;17.60;99.90;;;;;;5077195;28;20199;-90
2023/06/06 10:33:42;;;;;;;4.72;2.40;;;17.60;99.90;;;;;;5076845;28;20658;-90
2023/06/06 10:36:23;;;;;;;6.13;2.70;;;17.60;99.90;;;;;;5085978;28;20199;-90
2023/06/06 10:39:22;;;;;;;4.97;2.95;;;17.60;99.90;;;;;;5069425;28;20267;-90
2023/06/06 10:41:56;;;;;;;4.88;2.90;;;17.50;99.90;;;;;;5045751;28;20208;-90
2023/06/06 10:44:38;;;;;;;3.45;2.05;;;17.60;99.90;;;;;;5062154;28;20201;-90
2023/06/06 10:47:36;;;;;;;4.70;1.92;;;17.50;99.90;;;;;;5080113;28;20540;-90
2023/06/06 10:50:26;;;;;;;4.32;2.40;;;17.50;99.90;;;;;;5044408;28;20212;-89
2023/06/06 10:53:06;;;;;;;5.22;2.30;;;17.50;99.90;;;;;;5063680;28;20210;-90
2023/06/06 10:55:56;;;;;;;3.50;2.20;;;17.50;99.90;;;;;;5082623;28;20208;-91
2023/06/06 10:58:32;;;;;;;3.65;1.98;;;17.50;99.90;;;;;;5086837;28;20228;-90
2023/06/06 11:01:05;;;;;;;4.32;2.05;;;17.40;99.90;;;;;;5081581;28;20200;-90
2023/06/06 11:03:39;;;;;;;4.63;2.15;;;17.50;99.90;;;;;;5085247;28;20200;-89
2023/06/06 11:06:16;;;;;;;4.60;3.03;;;17.50;99.90;;;;;;5082535;28;20650;-89
2023/06/06 11:08:57;;;;;;;3.83;2.67;;;17.40;99.90;;;;;;5081361;28;20302;-90
2023/06/06 11:11:30;;;;;;;5.53;4.65;;;17.40;99.90;;;;;;5079800;28;20208;-89
2023/06/06 11:14:04;;;;;;;4.95;3.70;;;17.50;99.90;;;;;;5080665;28;20208;-89
2023/06/06 11:17:03;;;;;;;3.25;2.28;;;17.40;99.90;;;;;;5076975;28;20202;-90
2023/06/06 11:19:45;;;;;;;4.47;2.08;;;17.40;99.90;;;;;;5081571;28;20208;-89
2023/06/06 11:22:31;;;;;;;3.85;2.08;;;17.40;99.90;;;;;;5080629;28;20211;-90
2023/06/06 11:25:16;;;;;;;2.78;1.77;;;17.40;99.90;;;;;;5082816;28;20196;-91
2023/06/06 11:27:47;;;;;;;3.42;1.60;;;17.40;99.90;;;;;;5078584;28;20196;-90
2023/06/06 11:30:19;;;;;;;3.55;1.40;;;17.40;99.90;;;;;;5076954;28;20203;-89
2023/06/06 11:36:15;;;;;;;4.70;1.80;;;17.40;99.90;;;;;;5090423;28;20542;-89
2023/06/06 11:42:21;;;;;;;2.67;1.40;;;17.40;99.90;;;;;;5095156;28;20242;-87
2023/06/06 11:48:33;;;;;;;1.60;1.33;;;17.40;99.90;;;;;;5092620;28;20200;-89
2023/06/06 11:51:32;;;;;;;3.88;1.35;;;17.30;99.90;;;;;;5093048;28;20269;-89
2023/06/06 11:54:37;;;;;;;3.45;1.25;;;17.30;99.90;;;;;;5091579;28;20261;-88
2023/06/06 11:57:19;;;;;;;5.30;1.40;;;17.30;99.90;;;;;;5093148;28;20273;-89
2023/06/06 12:00:12;;;;;;;2.28;1.30;;;17.30;99.90;;;;;;5093721;28;20189;-92
2023/06/06 12:03:09;;;;;;;3.35;1.27;;;17.30;99.90;;;;;;5091930;28;20203;-88
2023/06/06 12:06:18;;;;;;;3.08;1.20;;;17.30;99.90;;;;;;5088443;28;20263;-88
2023/06/06 12:08:52;;;;;;;2.55;1.20;;;17.30;99.90;;;;;;5091344;28;20246;-90
2023/06/06 12:11:38;;;;;;;2.28;1.10;;;17.30;99.90;;;;;;5092065;28;20225;-89
2023/06/06 12:14:21;;;;;;;3.92;1.60;;;17.30;99.90;;;;;;5091039;28;20249;-90
2023/06/06 12:17:05;;;;;;;2.08;1.13;;;17.30;99.90;;;;;;5090708;28;20196;-89
2023/06/06 12:19:37;;;;;;;3.63;1.20;;;17.30;99.90;;;;;;5079726;28;20204;-90
2023/06/06 12:22:15;;;;;;;1.98;1.00;;;17.30;99.90;;;;;;5086208;28;20215;-90
2023/06/06 12:24:57;;;;;;;1.67;1.00;;;17.30;99.90;;;;;;5089289;28;20200;-90
2023/06/06 12:27:56;;;;;;;2.67;1.50;;;17.30;99.90;;;;;;5094853;28;20207;-88
2023/06/06 12:30:44;;;;;;;3.97;1.90;;;17.30;99.90;;;;;;5089635;28;20168;-89
2023/06/06 12:33:28;;;;;;;2.90;1.70;;;17.30;99.90;;;;;;5084848;28;20219;-89
2023/06/06 12:39:03;;;;;;;3.55;1.60;;;17.20;99.90;;;;;;5089677;28;20258;-90
2023/06/06 12:41:46;;;;;;;4.05;1.60;;;17.20;99.90;;;;;;5087967;28;20207;-89
2023/06/06 12:47:29;;;;;;;3.90;1.60;;;17.20;99.90;;;;;;5064134;28;20203;-91
2023/06/06 12:50:27;;;;;;;3.85;1.55;;;17.20;99.90;;;;;;5063362;28;20207;-90
2023/06/06 12:53:10;;;;;;;2.75;1.70;;;17.20;99.90;;;;;;5070675;28;20204;-90
2023/06/06 12:55:46;;;;;;;3.80;1.80;;;17.20;99.90;;;;;;5087164;28;20237;-90
2023/06/06 12:58:21;;;;;;;2.95;1.77;;;17.10;99.90;;;;;;5086995;28;20245;-89
2023/06/06 13:03:53;;;;;;;3.75;1.90;;;17.10;99.90;;;;;;5085270;28;20218;-88
2023/06/06 13:07:06;;;;;;;3.58;1.90;;;17.20;99.90;;;;;;5084992;28;20202;-87
2023/06/06 13:09:45;;;;;;;3.72;1.92;;;17.20;99.90;;;;;;5087935;28;20206;-91
2023/06/06 13:12:20;;;;;;;4.53;1.75;;;17.20;99.90;;;;;;5087937;28;20195;-88
2023/06/06 13:15:02;;;;;;;3.97;1.70;;;17.20;99.90;;;;;;5085789;28;20184;-88
2023/06/06 13:17:35;;;;;;;3.97;1.45;;;17.20;99.90;;;;;;5083338;28;20282;-91
2023/06/06 13:26:06;;;;;;;3.90;2.20;;;17.20;99.90;;;;;;5085885;28;20218;-90
2023/06/06 13:28:39;;;;;;;5.75;2.58;;;17.10;99.90;;;;;;5083867;28;20203;-89
2023/06/06 13:31:12;;;;;;;4.65;2.55;;;17.10;99.90;;;;;;5085325;28;20573;-88
2023/06/06 13:34:08;;;;;;;8.25;3.20;;;17.00;99.90;;;;;;5087310;28;20200;-88
2023/06/06 13:39:34;;;;;;;6.28;3.30;;;16.90;99.90;;;;;;5089063;28;20192;-87
2023/06/06 13:42:11;;;;;;;10.30;3.50;;;16.90;99.90;;;;;;5083985;28;20191;-88
2023/06/06 13:47:31;;;;;;;8.68;3.20;;;16.80;99.90;;;;;;5087418;28;20180;-91
2023/06/06 13:50:06;;;;;;;12.07;3.85;;;16.80;99.90;;;;;;5087414;28;20196;-89
2023/06/06 13:52:43;;;;;;;4.78;2.70;;;16.80;99.90;;;;;;5084060;28;20212;-88
2023/06/06 13:55:16;;;;;;;7.15;3.10;;;16.80;99.90;;;;;;5085925;28;20263;-89
2023/06/06 13:57:56;;;;;;;6.70;3.55;;;16.90;99.90;;;;;;5077944;28;20220;-90
2023/06/06 14:00:29;;;;;;;5.50;3.30;;;16.90;99.90;;;;;;5077793;28;20203;-90
2023/06/06 14:03:02;;;;;;;6.50;3.33;;;16.90;99.90;;;;;;5057864;28;20216;-89
2023/06/06 14:05:34;;;;;;;6.72;3.30;;;16.90;99.90;;;;;;5056877;28;20188;-90